Time;durP1;ratioP1;P1;durP2;ratioP2;P2;SDS_P1;SDS_P2;PMS_P1;PMS_P2;Temp;Humidity;BMP_temperature;BMP_pressure;BME280_temperature;BME280_humidity;BME280_pressure;Samples;Min_cycle;Max_cycle;Signal;HPM_P1;HPM_P2
2022/05/23 00:03:24;;;;;;;5.47;1.30;;;10.40;99.90;;;;;;6179337;23;20199;-94
2022/05/23 00:07:27;;;;;;;;;;;;;;;;;;;;;
2022/05/23 00:10:10;;;;;;;;;;;;;;;;;;;;;
2022/05/23 00:12:48;;;;;;;1.25;1.15;;;10.30;99.90;;;;;;6206858;23;20212;-94
2022/05/23 00:15:24;;;;;;;1.85;1.45;;;10.30;99.90;;;;;;6213792;23;20248;-93
2022/05/23 00:18:18;;;;;;;;;;;;;;;;;;;;;
2022/05/23 00:23:28;;;;;;;2.58;1.27;;;10.30;99.90;;;;;;6233133;22;20281;-94
2022/05/23 00:28:32;;;;;;;2.03;1.33;;;;;;;;;;6193884;23;20189;-94
2022/05/23 00:31:11;;;;;;;2.00;1.42;;;10.30;99.90;;;;;;6173671;23;20188;-93
2022/05/23 00:36:23;;;;;;;1.52;1.23;;;10.20;99.90;;;;;;6168887;23;20216;-91
2022/05/23 00:39:01;;;;;;;;;;;;;;;;;;;;;
2022/05/23 01:03:41;;;;;;;;;;;;;;;;;;;;;
2022/05/23 01:12:44;;;;;;;;;;;;;;;;;;;;;
2022/05/23 01:15:36;;;;;;;;;;;;;;;;;;;;;
2022/05/23 01:18:38;;;;;;;;;;;;;;;;;;;;;
2022/05/23 01:24:18;;;;;;;1.37;1.27;;;9.80;99.90;;;;;;6145756;23;20168;-94
2022/05/23 01:26:51;;;;;;;1.73;1.60;;;;;;;;;;6141549;23;20157;-94
2022/05/23 01:29:27;;;;;;;2.37;2.17;;;9.90;99.90;;;;;;6133885;23;20248;-94
2022/05/23 01:32:04;;;;;;;2.10;1.80;;;9.80;99.90;;;;;;6109910;23;20165;-93
2022/05/23 01:34:35;;;;;;;1.97;1.77;;;9.80;99.90;;;;;;6138662;23;20176;-94
2022/05/23 01:37:06;;;;;;;5.10;2.50;;;9.80;99.90;;;;;;6145763;23;20164;-92
2022/05/23 01:39:42;;;;;;;2.00;1.67;;;9.80;99.90;;;;;;6145422;23;20163;-92
2022/05/23 01:42:22;;;;;;;;;;;;;;;;;;;;;
2022/05/23 01:44:53;;;;;;;2.17;1.90;;;9.80;99.90;;;;;;6149340;23;20532;-93
2022/05/23 01:47:21;;;;;;;2.27;1.53;;;9.90;99.90;;;;;;6146540;23;20149;-94
2022/05/23 01:49:59;;;;;;;3.37;2.23;;;9.90;99.90;;;;;;6136755;23;20233;-95
2022/05/23 01:53:03;;;;;;;;;;;;;;;;;;;;;
2022/05/23 01:55:41;;;;;;;3.60;1.80;;;9.80;99.90;;;;;;6162964;23;20176;-96
2022/05/23 02:01:59;;;;;;;2.03;1.70;;;9.80;99.90;;;;;;6171495;23;20152;-93
2022/05/23 02:05:01;;;;;;;;;;;;;;;;;;;;;
2022/05/23 02:08:02;;;;;;;;;;;;;;;;;;;;;
2022/05/23 02:10:25;;;;;;;2.70;1.87;;;9.80;99.90;;;;;;6139972;23;20221;-91
2022/05/23 02:13:04;;;;;;;;;;;;;;;;;;;;;
2022/05/23 02:15:51;;;;;;;2.70;2.30;;;9.80;99.90;;;;;;6158051;23;20231;-95
2022/05/23 02:18:25;;;;;;;2.67;1.63;;;;;;;;;;6188089;23;20196;-93
2022/05/23 02:24:06;;;;;;;;;;;;;;;;;;;;;
2022/05/23 02:26:36;;;;;;;3.23;2.33;;;9.80;99.90;;;;;;6202440;23;20148;-93
2022/05/23 02:29:07;;;;;;;2.70;1.97;;;9.80;99.90;;;;;;6187850;23;20634;-94
2022/05/23 02:31:49;;;;;;;3.03;2.33;;;10.30;99.90;;;;;;6165002;23;20160;-95
2022/05/23 02:34:22;;;;;;;4.50;2.37;;;9.80;99.90;;;;;;6177310;23;20173;-94
2022/05/23 02:36:56;;;;;;;3.23;2.50;;;;;;;;;;6172248;23;20167;-93
2022/05/23 02:39:28;;;;;;;3.73;1.87;;;9.90;99.90;;;;;;6194992;23;20164;-92
2022/05/23 02:41:58;;;;;;;2.30;1.65;;;9.90;99.90;;;;;;6176645;23;20196;-95
2022/05/23 02:44:34;;;;;;;2.77;2.43;;;9.80;99.90;;;;;;6169802;23;20160;-94
2022/05/23 02:47:14;;;;;;;4.07;2.47;;;9.90;99.90;;;;;;6197370;23;20136;-94
2022/05/23 02:49:40;;;;;;;5.57;2.67;;;;;;;;;;6176317;23;20258;-94
2022/05/23 02:52:29;;;;;;;2.20;1.93;;;9.90;99.90;;;;;;6203836;23;20180;-94
2022/05/23 02:55:36;;;;;;;;;;;;;;;;;;;;;
2022/05/23 02:58:10;;;;;;;2.47;2.03;;;;;;;;;;6200859;23;20175;-95
2022/05/23 03:01:13;;;;;;;2.33;2.13;;;9.80;99.90;;;;;;6194929;23;20499;-95
2022/05/23 03:06:38;;;;;;;2.63;2.10;;;;;;;;;;6194133;23;20161;-94
2022/05/23 03:12:18;;;;;;;2.40;2.17;;;;;;;;;;6180937;23;20618;-94
2022/05/23 03:15:02;;;;;;;;;;;;;;;;;;;;;
2022/05/23 03:17:28;;;;;;;2.97;2.50;;;;;;;;;;6192058;23;20212;-94
2022/05/23 03:20:00;;;;;;;3.47;2.50;;;;;;;;;;6193704;23;20161;-94
2022/05/23 03:28:09;;;;;;;;;;;;;;;;;;;;;
2022/05/23 03:31:25;;;;;;;3.77;2.33;;;9.80;99.90;;;;;;6197892;23;20215;-94
2022/05/23 03:34:01;;;;;;;;;;;;;;;;;;;;;
2022/05/23 03:39:34;;;;;;;4.00;3.20;;;9.80;99.90;;;;;;6151674;23;20179;-93
2022/05/23 03:42:21;;;;;;;5.30;3.47;;;;;;;;;;6146391;23;20161;-94
2022/05/23 03:44:49;;;;;;;3.40;2.97;;;;;;;;;;6191446;23;20255;-95
2022/05/23 03:47:35;;;;;;;5.57;3.40;;;9.70;99.90;;;;;;6193627;23;20163;-94
2022/05/23 03:50:01;;;;;;;4.93;3.57;;;9.70;99.90;;;;;;6194128;23;20184;-92
2022/05/23 03:52:33;;;;;;;3.70;3.13;;;;;;;;;;6195352;23;20161;-95
2022/05/23 03:54:59;;;;;;;3.83;2.97;;;;;;;;;;6202172;23;20592;-94
2022/05/23 03:57:30;;;;;;;3.97;3.13;;;9.70;99.90;;;;;;6194102;23;20244;-95
2022/05/23 04:00:24;;;;;;;4.53;2.97;;;9.70;99.90;;;;;;6194971;23;20646;-95
2022/05/23 04:02:55;;;;;;;3.30;2.67;;;9.70;99.90;;;;;;6191397;23;20245;-95
2022/05/23 04:05:25;;;;;;;6.43;3.77;;;9.70;99.90;;;;;;6190165;23;20141;-93
2022/05/23 04:08:03;;;;;;;4.27;3.33;;;9.60;99.90;;;;;;6166647;23;20161;-95
2022/05/23 04:10:29;;;;;;;3.30;2.43;;;;;;;;;;6165542;23;20280;-94
2022/05/23 04:13:08;;;;;;;;;;;;;;;;;;;;;
2022/05/23 04:15:57;;;;;;;3.77;2.90;;;9.60;99.90;;;;;;6190780;23;20228;-95
2022/05/23 04:18:23;;;;;;;4.70;2.87;;;;;;;;;;6163425;23;20201;-94
2022/05/23 04:21:01;;;;;;;3.83;2.73;;;9.60;99.90;;;;;;6137757;23;20161;-96
2022/05/23 04:26:29;;;;;;;;;;;;;;;;;;;;;
2022/05/23 04:28:57;;;;;;;5.87;3.20;;;;;;;;;;6136889;23;20228;-95
2022/05/23 04:31:48;;;;;;;3.70;2.70;;;9.60;99.90;;;;;;6159015;23;20149;-95
2022/05/23 04:37:01;;;;;;;4.27;3.00;;;;;;;;;;6158494;23;20156;-95
2022/05/23 04:39:41;;;;;;;4.33;3.20;;;9.60;99.90;;;;;;6158321;23;20181;-92
2022/05/23 04:42:17;;;;;;;4.40;3.20;;;;;;;;;;6121966;23;20145;-94
2022/05/23 04:44:56;;;;;;;4.77;3.53;;;9.60;99.90;;;;;;6137154;23;20175;-94
2022/05/23 04:50:17;;;;;;;5.43;3.07;;;9.60;99.90;;;;;;6162208;23;20200;-92
2022/05/23 04:52:52;;;;;;;4.33;3.03;;;9.60;99.90;;;;;;6134639;23;20193;-92
2022/05/23 04:55:35;;;;;;;4.33;3.37;;;9.60;99.90;;;;;;6136613;23;20251;-91
2022/05/23 04:58:22;;;;;;;5.37;3.27;;;9.60;99.90;;;;;;6158322;23;20161;-89
2022/05/23 05:01:01;;;;;;;5.03;3.47;;;9.70;99.90;;;;;;6159549;23;20165;-90
2022/05/23 05:03:28;;;;;;;3.23;2.47;;;;;;;;;;6135562;23;20148;-91
2022/05/23 05:06:01;;;;;;;5.37;4.00;;;9.70;99.90;;;;;;6158202;23;20180;-92
2022/05/23 05:08:29;;;;;;;2.57;2.37;;;;;;;;;;6134170;23;20224;-94
2022/05/23 05:10:58;;;;;;;3.40;3.10;;;9.70;99.90;;;;;;6158970;23;20169;-93
2022/05/23 05:13:47;;;;;;;5.27;3.40;;;9.70;99.90;;;;;;6133709;23;20165;-90
2022/05/23 05:16:39;;;;;;;3.58;2.95;;;9.80;99.90;;;;;;6175251;23;20161;-89
2022/05/23 05:19:35;;;;;;;3.63;2.93;;;9.80;99.90;;;;;;6120183;23;20165;-92
2022/05/23 05:22:06;;;;;;;7.10;4.40;;;9.90;99.90;;;;;;6119727;23;20157;-89
2022/05/23 05:25:08;;;;;;;6.43;3.07;;;9.90;99.90;;;;;;6147361;23;20153;-92
2022/05/23 05:27:37;;;;;;;4.33;2.87;;;;;;;;;;6137206;23;20167;-93
2022/05/23 05:30:10;;;;;;;5.10;3.20;;;10.10;99.90;;;;;;6162344;23;20185;-92
2022/05/23 05:32:46;;;;;;;;;;;;;;;;;;;;;
2022/05/23 05:35:33;;;;;;;6.17;3.53;;;10.20;99.90;;;;;;6161899;23;20177;-93
2022/05/23 05:38:38;;;;;;;;;;;;;;;;;;;;;
2022/05/23 05:41:24;;;;;;;4.63;3.15;;;10.30;99.90;;;;;;6162020;23;20177;-91
2022/05/23 05:44:24;;;;;;;5.75;3.55;;;10.30;99.90;;;;;;6141055;23;20228;-92
2022/05/23 05:47:33;;;;;;;4.43;3.47;;;10.40;99.90;;;;;;6139360;23;20161;-92
2022/05/23 05:50:25;;;;;;;3.80;2.67;;;10.60;99.90;;;;;;6047881;23;20239;-93
2022/05/23 05:53:09;;;;;;;4.57;3.22;;;10.70;99.90;;;;;;6140354;23;20296;-93
2022/05/23 05:55:58;;;;;;;;;;;;;;;;;;;;;
2022/05/23 05:58:36;;;;;;;4.83;3.43;;;10.90;99.90;;;;;;6162280;23;20185;-92
2022/05/23 06:04:10;;;;;;;5.00;3.40;;;;;;;;;;6121827;23;20197;-90
2022/05/23 06:12:31;;;;;;;7.57;2.97;;;11.00;99.90;;;;;;6158248;23;20169;-93
2022/05/23 06:15:27;;;;;;;3.42;2.67;;;11.00;99.90;;;;;;6130947;23;20177;-92
2022/05/23 06:18:02;;;;;;;3.95;2.65;;;11.00;99.90;;;;;;6156978;23;20593;-92
2022/05/23 06:20:34;;;;;;;3.60;2.65;;;11.00;99.90;;;;;;6165589;23;20172;-88
2022/05/23 06:23:35;;;;;;;4.25;2.78;;;11.10;99.90;;;;;;6184395;23;20243;-91
2022/05/23 06:26:08;;;;;;;4.20;3.28;;;;;;;;;;6162641;23;20494;-91
2022/05/23 06:28:50;;;;;;;4.07;2.80;;;11.30;99.90;;;;;;6185374;23;20577;-93
2022/05/23 06:31:26;;;;;;;5.32;3.15;;;11.40;99.90;;;;;;6184632;23;20157;-93
2022/05/23 06:34:05;;;;;;;3.90;2.60;;;11.50;99.90;;;;;;6160311;23;20165;-93
2022/05/23 06:36:36;;;;;;;3.85;2.60;;;;;;;;;;6185131;23;20163;-92
2022/05/23 06:39:02;;;;;;;4.45;3.15;;;;;;;;;;6185596;23;20238;-91
2022/05/23 06:41:28;;;;;;;4.00;3.00;;;;;;;;;;6184331;23;20266;-90
2022/05/23 06:43:57;;;;;;;3.72;2.88;;;11.80;99.90;;;;;;6183894;23;20156;-89
2022/05/23 06:46:50;;;;;;;2.70;2.50;;;12.00;99.90;;;;;;6161690;23;20220;-93
2022/05/23 06:50:27;;;;;;;;;;;;;;;;;;;;;
2022/05/23 06:53:07;;;;;;;;;;;;;;;;;;;;;
2022/05/23 06:55:47;;;;;;;3.63;2.70;;;12.90;99.90;;;;;;6174931;23;20164;-94
2022/05/23 07:01:59;;;;;;;;;;;;;;;;;;;;;
2022/05/23 07:13:32;;;;;;;1.40;1.27;;;;;;;;;;6182597;23;20191;-92
2022/05/23 07:16:33;;;;;;;3.17;1.95;;;12.50;99.90;;;;;;6164082;23;20243;-92
2022/05/23 07:19:11;;;;;;;2.60;2.20;;;12.80;99.90;;;;;;6188421;23;20231;-90
2022/05/23 07:22:16;;;;;;;;;;;;;;;;;;;;;
2022/05/23 07:30:25;;;;;;;;;;;;;;;;;;;;;
2022/05/23 07:33:00;;;;;;;2.40;1.88;;;13.80;99.90;;;;;;6194055;23;20207;-94
2022/05/23 07:36:24;;;;;;;2.65;2.30;;;14.00;99.90;;;;;;6193000;23;20156;-94
2022/05/23 07:42:08;;;;;;;1.73;1.42;;;;;;;;;;6181160;23;20183;-94
2022/05/23 07:45:17;;;;;;;1.98;1.80;;;14.40;99.90;;;;;;6193212;23;20670;-92
2022/05/23 07:47:45;;;;;;;3.95;2.78;;;;;;;;;;6189269;23;20168;-93
2022/05/23 07:50:21;;;;;;;2.05;1.85;;;14.40;99.90;;;;;;6189349;23;20192;-92
2022/05/23 08:01:47;;;;;;;2.03;1.50;;;;;;;;;;6192666;23;20664;-91
2022/05/23 08:04:32;;;;;;;;;;;;;;;;;;;;;
2022/05/23 08:07:28;;;;;;;;;;;;;;;;;;;;;
2022/05/23 08:10:00;;;;;;;2.60;1.50;;;15.70;99.90;;;;;;6191463;23;20572;-92
2022/05/23 08:12:39;;;;;;;2.72;2.00;;;16.20;99.90;;;;;;6189718;23;20236;-94
2022/05/23 08:15:36;;;;;;;;;;;;;;;;;;;;;
2022/05/23 08:18:17;;;;;;;2.97;2.22;;;16.20;99.90;;;;;;6181977;23;20596;-92
2022/05/23 08:20:55;;;;;;;1.83;1.50;;;16.20;99.90;;;;;;6194159;23;20164;-93
2022/05/23 08:23:50;;;;;;;1.88;1.30;;;15.40;99.90;;;;;;6198764;23;20186;-93
2022/05/23 08:26:32;;;;;;;2.42;1.52;;;16.50;99.90;;;;;;6189107;23;20172;-93
2022/05/23 08:29:00;;;;;;;1.50;1.33;;;;;;;;;;6164105;23;20208;-92
2022/05/23 08:31:34;;;;;;;1.40;1.30;;;16.10;99.90;;;;;;6188183;23;20187;-91
2022/05/23 08:34:19;;;;;;;1.55;1.30;;;16.00;99.90;;;;;;6165704;23;20587;-93
2022/05/23 08:36:58;;;;;;;4.32;3.28;;;16.20;99.90;;;;;;6196022;23;20199;-93
2022/05/23 08:39:25;;;;;;;15.73;10.35;;;;;;;;;;6166589;23;20505;-92
2022/05/23 08:42:12;;;;;;;;;;;;;;;;;;;;;
2022/05/23 08:45:10;;;;;;;2.03;1.33;;;16.90;99.90;;;;;;6191439;23;20164;-93
2022/05/23 08:48:13;;;;;;;1.50;1.40;;;16.90;99.90;;;;;;6201556;23;20149;-93
2022/05/23 08:51:17;;;;;;;;;;;;;;;;;;;;;
2022/05/23 08:54:19;;;;;;;;;;;;;;;;;;;;;
2022/05/23 08:59:43;;;;;;;1.48;1.38;;;17.10;99.90;;;;;;6177690;23;20645;-90
2022/05/23 09:02:33;;;;;;;;;;;;;;;;;;;;;
2022/05/23 09:05:25;;;;;;;2.00;1.40;;;17.10;99.90;;;;;;6183234;23;20153;-93
2022/05/23 09:08:03;;;;;;;4.80;2.08;;;17.40;99.90;;;;;;6148588;23;20181;-93
2022/05/23 09:11:06;;;;;;;2.15;1.77;;;16.70;99.90;;;;;;6144491;23;20215;-93
2022/05/23 09:13:44;;;;;;;2.40;1.88;;;16.80;99.90;;;;;;6159103;23;20501;-92
2022/05/23 09:16:22;;;;;;;1.83;1.42;;;17.00;99.90;;;;;;6132390;23;20242;-93
2022/05/23 09:19:16;;;;;;;2.38;1.98;;;16.20;99.90;;;;;;6157686;23;20165;-94
2022/05/23 09:24:46;;;;;;;5.38;1.80;;;15.80;99.90;;;;;;6158784;23;20164;-92
2022/05/23 09:28:06;;;;;;;6.75;2.15;;;15.80;99.90;;;;;;6138516;23;20481;-92
2022/05/23 09:30:48;;;;;;;;;;;;;;;;;;;;;
2022/05/23 09:33:23;;;;;;;1.92;1.50;;;16.10;99.90;;;;;;6158944;23;20243;-92
2022/05/23 09:35:53;;;;;;;3.47;1.67;;;16.10;99.90;;;;;;6133621;23;20160;-92
2022/05/23 09:50:33;;;;;;;4.78;1.95;;;19.90;99.90;;;;;;6171163;23;20184;-93
2022/05/23 09:53:30;;;;;;;;;;;;;;;;;;;;;
2022/05/23 09:56:44;;;;;;;2.45;1.95;;;16.80;99.90;;;;;;6167416;23;20173;-94
2022/05/23 10:00:00;;;;;;;1.75;1.48;;;16.70;99.90;;;;;;6127246;23;20209;-91
2022/05/23 10:05:56;;;;;;;1.95;1.40;;;17.50;99.90;;;;;;6132694;23;20531;-91
2022/05/23 10:08:43;;;;;;;4.40;1.80;;;17.40;99.90;;;;;;6088997;23;20241;-91
2022/05/23 10:11:26;;;;;;;1.58;1.20;;;17.40;99.90;;;;;;6127968;23;20174;-93
2022/05/23 10:14:17;;;;;;;2.80;1.42;;;17.40;99.90;;;;;;6129330;23;20150;-93
2022/05/23 10:16:47;;;;;;;1.70;1.50;;;17.30;99.90;;;;;;6103705;23;20193;-92
2022/05/23 10:19:33;;;;;;;;;;;;;;;;;;;;;
2022/05/23 10:22:21;;;;;;;;;;;;;;;;;;;;;
2022/05/23 10:25:12;;;;;;;;;;;;;;;;;;;;;
2022/05/23 10:27:57;;;;;;;1.85;1.45;;;16.60;99.90;;;;;;6129682;23;20214;-92
2022/05/23 10:30:48;;;;;;;1.58;1.20;;;16.80;99.90;;;;;;6131524;23;20186;-92
2022/05/23 10:33:36;;;;;;;3.88;1.88;;;17.40;99.90;;;;;;6135200;23;20213;-90
2022/05/23 10:36:13;;;;;;;2.42;1.60;;;17.70;99.90;;;;;;6130093;23;20158;-92
2022/05/23 10:42:28;;;;;;;1.50;1.40;;;17.80;99.90;;;;;;6129077;23;20177;-89
2022/05/23 10:45:48;;;;;;;1.90;1.10;;;17.70;99.90;;;;;;6127776;23;20158;-91
2022/05/23 10:48:46;;;;;;;3.33;1.55;;;18.00;99.90;;;;;;6126492;23;20154;-91
2022/05/23 10:51:25;;;;;;;3.13;1.67;;;17.70;99.80;;;;;;6139322;23;20181;-90
2022/05/23 10:53:53;;;;;;;1.13;0.90;;;17.30;99.90;;;;;;6153765;23;20181;-90
2022/05/23 10:56:40;;;;;;;1.38;1.20;;;17.40;99.90;;;;;;6153330;23;20150;-90
2022/05/23 10:59:18;;;;;;;7.88;2.60;;;17.40;99.90;;;;;;6158286;23;20191;-90
2022/05/23 11:01:47;;;;;;;1.88;1.58;;;;;;;;;;6158699;23;20145;-92
2022/05/23 11:05:05;;;;;;;1.48;1.23;;;17.50;99.90;;;;;;6158445;23;20145;-93
2022/05/23 11:07:48;;;;;;;1.75;1.20;;;;;;;;;;6177643;23;20164;-91
2022/05/23 11:10:51;;;;;;;1.80;1.67;;;17.50;98.60;;;;;;6157697;23;20177;-93
2022/05/23 11:13:29;;;;;;;2.00;1.30;;;17.50;99.90;;;;;;6157074;23;20172;-94
2022/05/23 11:16:13;;;;;;;1.60;1.50;;;16.90;99.90;;;;;;6158090;23;20200;-91
2022/05/23 11:19:23;;;;;;;2.78;1.48;;;16.80;99.90;;;;;;6158038;23;20137;-91
2022/05/23 11:22:39;;;;;;;1.95;1.30;;;16.80;99.90;;;;;;6148269;23;20185;-91
2022/05/23 11:26:01;;;;;;;1.40;1.10;;;16.80;99.90;;;;;;6145659;23;20593;-90
2022/05/23 11:34:38;;;;;;;1.88;1.60;;;17.50;99.90;;;;;;6158735;23;20484;-90
2022/05/23 11:40:50;;;;;;;;;;;;;;;;;;;;;
2022/05/23 11:43:26;;;;;;;2.63;1.77;;;18.00;99.60;;;;;;6125061;23;20640;-90
2022/05/23 11:46:16;;;;;;;2.78;1.33;;;18.10;98.70;;;;;;6133091;23;20165;-89
2022/05/23 11:48:52;;;;;;;1.83;0.95;;;18.30;98.80;;;;;;6136864;23;20162;-90
2022/05/23 11:51:25;;;;;;;1.58;1.40;;;18.80;95.90;;;;;;6111702;23;20165;-92
2022/05/23 11:54:23;;;;;;;2.00;1.42;;;18.60;92.30;;;;;;6133124;23;20161;-91
2022/05/23 11:57:03;;;;;;;4.43;1.73;;;19.00;84.70;;;;;;6157924;23;20233;-88
2022/05/23 11:59:39;;;;;;;;;;;;;;;;;;;;;
2022/05/23 12:02:11;;;;;;;1.15;1.10;;;19.40;90.20;;;;;;6129428;23;20225;-89
2022/05/23 12:04:40;;;;;;;1.02;0.90;;;;;;;;;;6104414;23;20162;-88
2022/05/23 12:07:44;;;;;;;;;;;;;;;;;;;;;
2022/05/23 12:10:24;;;;;;;1.50;1.17;;;19.20;80.30;;;;;;6128043;23;20284;-88
2022/05/23 12:13:17;;;;;;;7.22;2.05;;;19.20;82.80;;;;;;6102415;23;20161;-87
2022/05/23 12:15:43;;;;;;;2.28;1.60;;;;;;;;;;6102011;23;20166;-88
2022/05/23 12:18:13;;;;;;;4.80;1.10;;;19.00;82.50;;;;;;6105983;23;20158;-89
2022/05/23 12:20:55;;;;;;;2.33;1.40;;;18.80;82.50;;;;;;6102757;23;20660;-91
2022/05/23 12:23:37;;;;;;;1.20;1.00;;;18.50;81.70;;;;;;6104056;23;20157;-90
2022/05/23 12:26:24;;;;;;;;;;;;;;;;;;;;;
2022/05/23 12:28:58;;;;;;;1.15;1.00;;;18.90;88.60;;;;;;6130220;23;20242;-91
2022/05/23 12:31:35;;;;;;;;;;;;;;;;;;;;;
2022/05/23 12:34:12;;;;;;;;;;;;;;;;;;;;;
2022/05/23 12:36:50;;;;;;;9.38;4.75;;;18.70;94.30;;;;;;6140142;23;20258;-89
2022/05/23 12:39:31;;;;;;;3.05;1.85;;;18.70;92.30;;;;;;6103923;23;20596;-90
2022/05/23 12:42:02;;;;;;;8.02;4.80;;;18.70;92.60;;;;;;6102902;23;20150;-89
2022/05/23 12:44:52;;;;;;;4.90;3.40;;;18.60;93.00;;;;;;6104497;23;20212;-92
2022/05/23 12:48:16;;;;;;;2.22;1.50;;;18.30;93.80;;;;;;6104795;23;20581;-90
2022/05/23 12:51:13;;;;;;;1.67;1.40;;;18.40;95.20;;;;;;6136903;23;20489;-90
2022/05/23 12:54:16;;;;;;;5.35;3.15;;;18.40;96.10;;;;;;6112954;23;20589;-89
2022/05/23 12:57:07;;;;;;;3.45;2.20;;;18.80;94.70;;;;;;6128697;23;20181;-91
2022/05/23 12:59:59;;;;;;;4.20;2.78;;;19.00;92.30;;;;;;6103033;23;20174;-91
2022/05/23 13:02:57;;;;;;;1.33;1.23;;;19.40;94.40;;;;;;6126756;23;20209;-90
2022/05/23 13:09:10;;;;;;;2.03;1.50;;;19.10;92.20;;;;;;6104765;23;20166;-92
2022/05/23 13:12:09;;;;;;;2.38;1.42;;;18.80;92.40;;;;;;6080209;23;20207;-91
2022/05/23 13:15:01;;;;;;;1.40;1.30;;;18.60;93.10;;;;;;6104189;23;20166;-93
2022/05/23 13:22:05;;;;;;;1.73;1.20;;;17.60;92.90;;;;;;6104152;23;20237;-92
2022/05/23 13:27:28;;;;;;;2.65;1.63;;;17.80;99.30;;;;;;6129778;23;20197;-90
2022/05/23 13:30:13;;;;;;;3.10;1.80;;;17.70;99.20;;;;;;6130677;23;20238;-91
2022/05/23 13:33:09;;;;;;;2.28;1.50;;;17.60;99.90;;;;;;6103653;23;20168;-95
2022/05/23 13:35:59;;;;;;;1.98;1.45;;;17.50;99.90;;;;;;6093163;23;20466;-91
2022/05/23 13:38:43;;;;;;;2.40;1.52;;;17.40;99.90;;;;;;6101859;23;20162;-93
2022/05/23 13:41:46;;;;;;;;;;;;;;;;;;;;;
2022/05/23 13:44:35;;;;;;;;;;;;;;;;;;;;;
2022/05/23 13:47:13;;;;;;;1.80;1.38;;;17.10;99.90;;;;;;6131379;23;20177;-93
2022/05/23 13:50:14;;;;;;;3.35;1.60;;;15.30;99.90;;;;;;6081924;23;20613;-92
2022/05/23 13:53:11;;;;;;;2.78;1.58;;;16.90;99.90;;;;;;6106105;23;20158;-91
2022/05/23 13:55:45;;;;;;;2.50;1.67;;;16.90;99.90;;;;;;6107311;23;20161;-91
2022/05/23 13:58:47;;;;;;;1.20;1.10;;;16.90;99.90;;;;;;6115386;23;20198;-92
2022/05/23 14:01:45;;;;;;;1.23;1.13;;;16.70;99.90;;;;;;6103277;23;20165;-89
2022/05/23 14:04:17;;;;;;;5.63;1.25;;;16.70;99.90;;;;;;6106238;23;20165;-92
2022/05/23 14:06:52;;;;;;;1.83;1.50;;;16.80;99.90;;;;;;6129883;23;20169;-90
2022/05/23 14:09:21;;;;;;;2.53;1.80;;;;;;;;;;6126743;23;20268;-90
2022/05/23 14:12:02;;;;;;;2.95;1.77;;;16.70;99.90;;;;;;6126368;23;20240;-89
2022/05/23 14:15:14;;;;;;;;;;;;;;;;;;;;;
2022/05/23 14:17:53;;;;;;;3.70;1.58;;;16.60;99.90;;;;;;6124725;23;20229;-92
2022/05/23 14:20:57;;;;;;;1.60;1.30;;;16.40;99.90;;;;;;6130259;23;20161;-92
2022/05/23 14:23:26;;;;;;;2.08;1.88;;;16.60;99.90;;;;;;6129292;23;20188;-94
2022/05/23 14:25:55;;;;;;;2.28;1.60;;;16.60;99.90;;;;;;6128961;23;20166;-90
2022/05/23 14:28:57;;;;;;;2.50;1.85;;;16.50;99.90;;;;;;6127953;23;20200;-94
2022/05/23 14:32:08;;;;;;;2.03;1.80;;;17.00;99.90;;;;;;6118002;23;20165;-91
2022/05/23 14:34:52;;;;;;;;;;;;;;;;;;;;;
2022/05/23 14:37:42;;;;;;;2.65;1.70;;;16.50;99.90;;;;;;6130369;23;20232;-92
2022/05/23 14:40:32;;;;;;;2.08;1.60;;;16.50;99.90;;;;;;6130177;23;20597;-92
2022/05/23 14:42:58;;;;;;;2.65;1.90;;;;;;;;;;6129864;23;20233;-92
2022/05/23 14:46:04;;;;;;;;;;;;;;;;;;;;;
2022/05/23 14:48:40;;;;;;;3.58;1.63;;;16.50;99.90;;;;;;6128797;23;20225;-91
2022/05/23 14:51:39;;;;;;;2.50;2.03;;;16.40;99.90;;;;;;6129100;23;20233;-93
2022/05/23 15:00:49;;;;;;;6.70;3.30;;;16.40;99.90;;;;;;6100241;23;20227;-91
2022/05/23 15:03:47;;;;;;;;;;;;;;;;;;;;;
2022/05/23 15:06:43;;;;;;;3.83;2.85;;;16.30;99.90;;;;;;6158481;23;20256;-92
2022/05/23 15:09:19;;;;;;;;;;;;;;;;;;;;;
2022/05/23 15:12:00;;;;;;;;;;;;;;;;;;;;;
2022/05/23 15:14:27;;;;;;;5.60;3.42;;;;;;;;;;6133796;23;20213;-92
2022/05/23 15:17:01;;;;;;;4.88;2.47;;;16.30;99.90;;;;;;6131489;23;20165;-92
2022/05/23 15:19:49;;;;;;;5.40;2.85;;;16.30;99.90;;;;;;6108074;23;20667;-92
2022/05/23 15:22:42;;;;;;;;;;;;;;;;;;;;;
2022/05/23 15:25:21;;;;;;;;;;;;;;;;;;;;;
2022/05/23 15:32:13;;;;;;;3.80;2.38;;;16.30;99.90;;;;;;6042412;23;20200;-95
2022/05/23 15:39:20;;;;;;;;;;;;;;;;;;;;;
2022/05/23 16:10:02;;;;;;;2.63;1.60;;;19.60;99.90;;;;;;5868911;24;20213;-93
2022/05/23 16:13:01;;;;;;;;;;;;;;;;;;;;;
2022/05/23 16:26:28;;;;;;;2.80;1.60;;;20.00;98.60;;;;;;6068106;23;20174;-95
2022/05/23 16:29:35;;;;;;;;;;;;;;;;;;;;;
2022/05/23 16:38:47;;;;;;;;;;;;;;;;;;;;;
2022/05/23 16:41:21;;;;;;;3.60;1.80;;;20.70;90.80;;;;;;6151187;23;20264;-89
2022/05/23 16:44:17;;;;;;;2.17;1.70;;;20.20;91.70;;;;;;6132435;23;20607;-91
2022/05/23 16:47:08;;;;;;;4.93;1.70;;;19.50;93.50;;;;;;6132733;23;20216;-92
2022/05/23 16:49:35;;;;;;;2.17;1.70;;;19.00;95.30;;;;;;6105350;23;20281;-88
2022/05/23 16:52:14;;;;;;;;;;;;;;;;;;;;;
2022/05/23 16:54:53;;;;;;;3.00;1.80;;;18.00;99.90;;;;;;6157318;23;20146;-93
2022/05/23 16:57:34;;;;;;;;;;;;;;;;;;;;;
2022/05/23 17:03:17;;;;;;;2.72;1.80;;;17.60;99.90;;;;;;6142826;23;20287;-90
2022/05/23 17:06:41;;;;;;;;;;;;;;;;;;;;;
2022/05/23 17:09:22;;;;;;;;;;;;;;;;;;;;;
2022/05/23 17:25:56;;;;;;;1.75;1.60;;;16.70;99.90;;;;;;6173059;22;20207;-90
2022/05/23 17:42:14;;;;;;;3.22;2.08;;;16.10;99.90;;;;;;6070748;23;20218;-93
2022/05/23 17:44:52;;;;;;;3.10;1.73;;;16.50;99.90;;;;;;6023200;23;20258;-89
2022/05/23 17:47:24;;;;;;;1.98;1.50;;;16.40;99.90;;;;;;6137524;23;20160;-89
2022/05/23 19:29:18;;;;;;;;;;;;;;;;;;;;;
2022/05/23 19:31:51;;;;;;;6.45;3.85;;;12.50;99.90;;;;;;5787747;24;20242;-93
2022/05/23 19:34:20;;;;;;;8.32;4.20;;;12.50;99.90;;;;;;5947746;23;20513;-91
2022/05/23 19:37:04;;;;;;;13.60;4.95;;;12.50;99.90;;;;;;6073722;23;20160;-93
2022/05/23 19:43:10;;;;;;;;;;;;;;;;;;;;;
2022/05/23 19:46:30;;;;;;;;;;;;;;;;;;;;;
2022/05/23 19:56:23;;;;;;;;;;;;;;;;;;;;;
2022/05/23 19:59:50;;;;;;;;;;;;;;;;;;;;;
2022/05/23 20:09:03;;;;;;;9.23;6.10;;;11.70;99.90;;;;;;6201696;23;20152;-92
2022/05/23 20:18:57;;;;;;;;;;;;;;;;;;;;;
2022/05/23 20:32:26;;;;;;;;;;;;;;;;;;;;;
2022/05/23 20:39:24;;;;;;;;;;;;;;;;;;;;;
2022/05/23 20:42:31;;;;;;;;;;;;;;;;;;;;;
2022/05/23 20:45:48;;;;;;;16.67;6.18;;;11.20;99.90;;;;;;6045815;23;20250;-95
2022/05/23 20:49:10;;;;;;;;;;;;;;;;;;;;;
2022/05/23 21:16:59;;;;;;;11.23;5.93;;;10.50;99.90;;;;;;5855913;24;20179;-95
2022/05/23 21:23:34;;;;;;;14.57;7.47;;;10.40;99.90;;;;;;5822025;24;20238;-95
2022/05/23 21:30:40;;;;;;;;;;;;;;;;;;;;;
2022/05/23 21:46:36;;;;;;;11.70;6.77;;;10.00;99.90;;;;;;5928048;24;20204;-93
2022/05/23 21:49:18;;;;;;;11.53;5.60;;;10.00;99.90;;;;;;5908641;23;20171;-91
2022/05/23 21:52:00;;;;;;;;;;;;;;;;;;;;;
2022/05/23 21:54:55;;;;;;;9.23;5.30;;;9.90;99.90;;;;;;6143024;23;20231;-93
2022/05/23 21:57:31;;;;;;;12.18;6.07;;;9.80;99.90;;;;;;6151793;23;20239;-92
2022/05/23 22:00:00;;;;;;;16.57;6.70;;;;;;;;;;6190513;23;20144;-93
2022/05/23 22:02:31;;;;;;;9.67;5.70;;;;;;;;;;6191523;23;20160;-92
2022/05/23 22:05:07;;;;;;;11.67;5.93;;;9.70;99.90;;;;;;6191919;23;20159;-93
2022/05/23 22:07:41;;;;;;;7.57;5.50;;;;;;;;;;6144381;23;20594;-93
2022/05/23 22:10:19;;;;;;;9.00;5.20;;;9.70;99.90;;;;;;6192180;23;20198;-92
2022/05/23 22:12:50;;;;;;;10.43;6.13;;;;;;;;;;6192168;23;20156;-93
2022/05/23 22:15:32;;;;;;;;;;;;;;;;;;;;;
2022/05/23 22:18:16;;;;;;;;;;;;;;;;;;;;;
2022/05/23 22:21:20;;;;;;;;;;;;;;;;;;;;;
2022/05/23 22:24:36;;;;;;;11.43;6.00;;;9.40;99.90;;;;;;6199855;23;20194;-94
2022/05/23 22:27:42;;;;;;;;;;;;;;;;;;;;;
2022/05/23 22:30:45;;;;;;;;;;;;;;;;;;;;;
2022/05/23 22:36:37;;;;;;;11.03;5.73;;;;;;;;;;6197217;23;20214;-93
2022/05/23 22:39:33;;;;;;;;;;;;;;;;;;;;;
2022/05/23 22:42:32;;;;;;;;;;;;;;;;;;;;;
2022/05/23 22:45:37;;;;;;;;;;;;;;;;;;;;;
2022/05/23 22:52:32;;;;;;;;;;;;;;;;;;;;;
2022/05/23 22:55:15;;;;;;;9.80;5.73;;;;;;;;;;6129390;23;20216;-93
2022/05/23 22:58:03;;;;;;;12.03;5.97;;;8.90;99.90;;;;;;6214344;23;20151;-93
2022/05/23 23:00:48;;;;;;;9.87;5.83;;;8.90;99.90;;;;;;6211780;23;20191;-93
2022/05/23 23:06:18;;;;;;;9.00;5.10;;;8.80;99.90;;;;;;6213641;23;20136;-90
2022/05/23 23:09:17;;;;;;;7.67;4.73;;;8.80;99.90;;;;;;6212630;23;20184;-93
2022/05/23 23:12:22;;;;;;;7.77;4.70;;;8.70;99.90;;;;;;6212994;23;20148;-93
2022/05/23 23:14:48;;;;;;;8.80;5.63;;;;;;;;;;6213057;23;20144;-91
2022/05/23 23:17:26;;;;;;;7.20;4.60;;;8.70;99.90;;;;;;6212614;23;20151;-92
2022/05/23 23:19:55;;;;;;;8.50;4.93;;;;;;;;;;6213222;23;20200;-91
2022/05/23 23:22:33;;;;;;;6.87;4.70;;;8.70;99.90;;;;;;6212545;23;20152;-92
2022/05/23 23:25:03;;;;;;;11.07;5.60;;;;;;;;;;6164754;23;20137;-91
2022/05/23 23:27:42;;;;;;;;;;;;;;;;;;;;;
2022/05/23 23:30:38;;;;;;;9.73;4.70;;;8.70;99.90;;;;;;6210715;23;20164;-91
2022/05/23 23:39:09;;;;;;;10.53;4.93;;;8.60;99.90;;;;;;6210694;23;20152;-93
2022/05/23 23:42:19;;;;;;;10.33;4.93;;;8.60;99.90;;;;;;6184609;23;20183;-93
2022/05/23 23:45:36;;;;;;;;;;;;;;;;;;;;;
2022/05/23 23:48:13;;;;;;;7.83;4.60;;;8.50;99.90;;;;;;6212265;23;20159;-93
2022/05/23 23:51:29;;;;;;;;;;;;;;;;;;;;;
2022/05/23 23:54:01;;;;;;;11.67;5.80;;;8.40;99.90;;;;;;6189447;23;20227;-94